Time;durP1;ratioP1;P1;durP2;ratioP2;P2;SDS_P1;SDS_P2;PMS_P1;PMS_P2;Temp;Humidity;BMP_temperature;BMP_pressure;BME280_temperature;BME280_humidity;BME280_pressure;Samples;Min_cycle;Max_cycle;Signal;HPM_P1;HPM_P2
2022/12/21 00:00:20;;;;;;;993.17;463.65;;;-0.40;99.90;;;;;;5073638;28;20033;-60
2022/12/21 00:02:46;;;;;;;1024.28;476.52;;;-0.40;99.90;;;;;;5074621;28;20028;-60
2022/12/21 00:05:12;;;;;;;1004.22;485.23;;;-0.50;99.90;;;;;;5077539;28;20393;-60
2022/12/21 00:07:37;;;;;;;1045.35;486.95;;;-0.60;99.90;;;;;;5077342;28;20024;-60
2022/12/21 00:10:04;;;;;;;1121.32;533.95;;;-0.80;99.90;;;;;;5077274;28;20116;-60
2022/12/21 00:12:30;;;;;;;1127.57;528.47;;;-0.80;99.90;;;;;;5077315;28;20028;-60
2022/12/21 00:14:56;;;;;;;1065.85;504.90;;;-0.70;99.90;;;;;;5077324;28;20031;-60
2022/12/21 00:17:22;;;;;;;1088.32;512.67;;;-0.50;99.90;;;;;;5077060;28;20477;-60
2022/12/21 00:19:47;;;;;;;1034.63;499.95;;;-0.50;99.90;;;;;;5077298;28;20377;-60
2022/12/21 00:22:13;;;;;;;1068.47;514.53;;;-0.60;99.90;;;;;;5076948;28;20025;-60
2022/12/21 00:24:39;;;;;;;968.53;478.50;;;-0.50;99.90;;;;;;5077150;28;20474;-60
2022/12/21 00:27:05;;;;;;;959.13;470.05;;;-0.60;99.90;;;;;;5077091;28;20103;-60
2022/12/21 00:29:31;;;;;;;971.28;450.33;;;-0.60;99.90;;;;;;5059301;28;20056;-60
2022/12/21 00:31:57;;;;;;;934.80;435.45;;;-0.60;99.90;;;;;;5076950;28;20035;-60
2022/12/21 00:34:23;;;;;;;662.38;296.42;;;-0.60;99.90;;;;;;5076763;28;20033;-60
2022/12/21 00:36:51;;;;;;;715.20;319.15;;;-0.60;99.90;;;;;;5077064;28;20032;-60
2022/12/21 00:39:17;;;;;;;679.08;303.50;;;-0.60;99.90;;;;;;5059054;28;20020;-60
2022/12/21 00:41:44;;;;;;;726.58;332.27;;;-0.70;99.90;;;;;;5076710;28;20386;-60
2022/12/21 00:44:13;;;;;;;655.40;299.70;;;-0.60;99.90;;;;;;5076871;28;20028;-60
2022/12/21 00:46:39;;;;;;;609.22;269.88;;;-0.50;99.90;;;;;;5076931;28;20031;-60
2022/12/21 00:49:07;;;;;;;585.00;250.68;;;-0.50;99.90;;;;;;5076548;28;20115;-60
2022/12/21 00:51:34;;;;;;;616.03;270.58;;;-0.50;99.90;;;;;;5058490;28;20036;-60
2022/12/21 00:54:01;;;;;;;616.70;267.23;;;-0.50;99.90;;;;;;5058655;28;20035;-60
2022/12/21 00:56:28;;;;;;;626.35;273.88;;;-0.60;99.90;;;;;;5058244;28;20496;-60
2022/12/21 00:58:54;;;;;;;600.47;273.50;;;-0.70;99.90;;;;;;5058397;28;20036;-60
2022/12/21 01:01:30;;;;;;;634.50;288.70;;;-0.60;99.90;;;;;;5076234;28;20024;-60
2022/12/21 01:03:57;;;;;;;651.28;284.40;;;-0.70;99.90;;;;;;5076082;28;20051;-60
2022/12/21 01:06:27;;;;;;;624.67;281.75;;;-0.80;99.90;;;;;;5076506;28;20120;-60
2022/12/21 01:08:54;;;;;;;640.90;292.85;;;-0.90;99.90;;;;;;5076013;28;20425;-60
2022/12/21 01:11:22;;;;;;;661.75;309.52;;;-0.90;99.90;;;;;;5076110;28;20478;-60
2022/12/21 01:13:48;;;;;;;673.55;309.65;;;-0.90;99.90;;;;;;5075801;28;20103;-60
2022/12/21 01:16:20;;;;;;;694.72;326.90;;;-1.00;99.90;;;;;;5075544;28;20032;-60
2022/12/21 01:18:47;;;;;;;738.75;341.80;;;-1.00;99.90;;;;;;5075912;28;20059;-60
2022/12/21 01:21:26;;;;;;;770.42;358.27;;;-1.00;99.90;;;;;;5076097;28;20060;-60
2022/12/21 01:23:54;;;;;;;744.05;353.02;;;-1.10;99.90;;;;;;5075843;28;20430;-60
2022/12/21 01:26:20;;;;;;;743.45;356.38;;;-1.10;99.90;;;;;;5058098;28;20032;-60
2022/12/21 01:28:46;;;;;;;619.92;278.95;;;-1.00;99.90;;;;;;5075934;28;20025;-60
2022/12/21 01:31:13;;;;;;;645.22;291.08;;;-0.90;99.90;;;;;;5057781;28;20116;-60
2022/12/21 01:33:39;;;;;;;650.33;298.75;;;-0.90;99.90;;;;;;5075700;28;20032;-60
2022/12/21 01:36:10;;;;;;;672.03;309.15;;;-0.90;99.90;;;;;;5075763;28;20035;-60
2022/12/21 01:38:39;;;;;;;677.50;313.23;;;-0.90;99.90;;;;;;5075614;28;20555;-60
2022/12/21 01:41:05;;;;;;;680.05;298.02;;;-0.90;99.90;;;;;;5075648;28;20043;-60
2022/12/21 01:43:44;;;;;;;612.97;262.20;;;-0.80;99.90;;;;;;5075683;28;20025;-60
2022/12/21 01:46:34;;;;;;;620.28;270.55;;;-0.80;99.90;;;;;;5075340;28;20037;-60
2022/12/21 01:49:14;;;;;;;637.25;286.25;;;-0.90;99.90;;;;;;5075658;28;20509;-60
2022/12/21 01:51:44;;;;;;;691.08;308.60;;;-0.80;99.90;;;;;;5057381;28;20056;-60
2022/12/21 01:54:35;;;;;;;582.38;267.02;;;-0.60;99.90;;;;;;5075345;28;20024;-60
2022/12/21 01:57:07;;;;;;;564.70;248.15;;;-0.60;99.90;;;;;;5074596;28;20033;-60
2022/12/21 01:59:38;;;;;;;550.97;233.32;;;-0.70;99.90;;;;;;5057485;28;20478;-60
2022/12/21 02:02:08;;;;;;;542.05;233.48;;;-0.80;99.90;;;;;;5075389;28;20032;-60
2022/12/21 02:04:34;;;;;;;537.58;218.77;;;-0.90;99.90;;;;;;5075233;28;20035;-60
2022/12/21 02:07:00;;;;;;;507.58;204.65;;;-0.90;99.90;;;;;;5075199;28;20036;-60
2022/12/21 02:09:32;;;;;;;496.13;199.35;;;-0.90;99.90;;;;;;5056895;28;20028;-60
2022/12/21 02:12:03;;;;;;;485.95;197.63;;;-1.00;99.90;;;;;;5075100;28;20025;-61
2022/12/21 02:14:32;;;;;;;496.95;198.88;;;-1.00;99.90;;;;;;5074938;28;20024;-60
2022/12/21 02:17:33;;;;;;;494.15;204.43;;;-0.90;99.90;;;;;;5056865;28;20028;-60
2022/12/21 02:20:14;;;;;;;500.63;207.20;;;-0.90;99.90;;;;;;5074912;28;20107;-60
2022/12/21 02:23:05;;;;;;;486.38;200.65;;;-0.90;99.90;;;;;;5074853;28;20039;-60
2022/12/21 02:25:50;;;;;;;;;;;-1.00;99.90;;;;;;5057342;28;20032;-60
2022/12/21 02:28:44;;;;;;;508.40;209.70;;;-0.90;99.90;;;;;;5074675;28;19955;-60
2022/12/21 02:31:31;;;;;;;510.77;208.55;;;-1.10;99.90;;;;;;5074800;28;20052;-60
2022/12/21 02:34:34;;;;;;;549.20;228.23;;;-1.00;99.90;;;;;;5056704;28;20541;-60
2022/12/21 02:37:25;;;;;;;524.15;217.18;;;-1.20;99.90;;;;;;5074694;28;20024;-60
2022/12/21 02:40:08;;;;;;;567.67;241.20;;;-1.30;99.90;;;;;;5056348;28;20028;-60
2022/12/21 02:45:51;;;;;;;545.92;232.38;;;-1.40;99.90;;;;;;5056563;28;20040;-60
2022/12/21 02:48:28;;;;;;;541.55;221.13;;;-1.30;99.90;;;;;;5074645;28;20028;-60
2022/12/21 02:51:00;;;;;;;490.70;208.45;;;-1.20;99.90;;;;;;5065322;28;20084;-60
2022/12/21 02:53:32;;;;;;;558.55;238.77;;;-1.10;99.90;;;;;;5054415;28;20505;-60
2022/12/21 02:55:58;;;;;;;534.55;225.43;;;-1.10;99.90;;;;;;5054331;28;20478;-60
2022/12/21 02:58:24;;;;;;;559.67;236.70;;;-1.30;99.90;;;;;;5036389;28;20179;-60
2022/12/21 03:00:51;;;;;;;602.00;260.45;;;-1.30;99.90;;;;;;5036561;28;20068;-60
2022/12/21 03:06:44;;;;;;;554.53;225.38;;;-1.30;99.90;;;;;;5036401;28;20032;-60
2022/12/21 03:09:49;;;;;;;661.60;249.27;;;-1.40;99.90;;;;;;5036178;28;20025;-60
2022/12/21 03:12:29;;;;;;;569.10;239.02;;;-1.30;99.90;;;;;;5023556;28;20040;-60
2022/12/21 03:15:17;;;;;;;554.40;226.68;;;-1.40;99.90;;;;;;5036446;28;20053;-60
2022/12/21 03:17:44;;;;;;;556.53;241.63;;;-1.50;99.90;;;;;;5043642;28;20079;-60
2022/12/21 03:20:39;;;;;;;608.83;272.73;;;-1.60;99.90;;;;;;5056120;28;20032;-60
2022/12/21 03:23:20;;;;;;;582.78;256.52;;;-1.60;99.90;;;;;;5043282;28;20452;-60
2022/12/21 03:25:59;;;;;;;695.83;301.95;;;-1.60;99.90;;;;;;5074087;28;20385;-60
2022/12/21 03:28:30;;;;;;;695.28;310.00;;;-1.60;99.90;;;;;;5074253;28;20046;-60
2022/12/21 03:31:01;;;;;;;527.63;233.25;;;-1.60;99.90;;;;;;5074134;28;20029;-60
2022/12/21 03:33:32;;;;;;;643.65;278.42;;;-1.50;99.90;;;;;;5073971;28;20027;-60
2022/12/21 03:36:01;;;;;;;;;;;-1.60;99.90;;;;;;5074523;28;20425;-60
2022/12/21 03:38:37;;;;;;;683.90;303.05;;;-1.60;99.90;;;;;;5075949;28;19959;-60
2022/12/21 03:41:10;;;;;;;681.90;310.20;;;-1.60;99.90;;;;;;5078215;28;20024;-60
2022/12/21 03:43:36;;;;;;;677.00;300.27;;;-1.60;99.90;;;;;;5078015;28;20559;-60
2022/12/21 03:46:15;;;;;;;698.35;315.25;;;-1.60;99.90;;;;;;5077839;28;20523;-60
2022/12/21 03:48:57;;;;;;;687.97;315.25;;;-1.70;99.90;;;;;;5077847;28;20025;-60
2022/12/21 03:51:28;;;;;;;714.70;324.27;;;-1.70;99.90;;;;;;5077523;28;20389;-60
2022/12/21 03:54:07;;;;;;;680.00;316.63;;;-1.70;99.90;;;;;;5077675;28;20364;-60
2022/12/21 03:56:37;;;;;;;616.25;272.50;;;-1.60;99.90;;;;;;5077725;28;20028;-60
2022/12/21 03:59:04;;;;;;;636.63;264.83;;;-1.50;99.90;;;;;;5077714;28;20099;-60
2022/12/21 04:02:02;;;;;;;599.75;251.07;;;-1.60;99.90;;;;;;5077525;28;20268;-60
2022/12/21 04:04:51;;;;;;;607.25;256.25;;;-1.40;99.90;;;;;;5036020;28;20059;-60
2022/12/21 04:07:23;;;;;;;604.20;259.67;;;-1.40;99.90;;;;;;5059684;28;20040;-60
2022/12/21 04:10:00;;;;;;;596.50;250.65;;;-1.40;99.90;;;;;;5077197;28;20063;-60
2022/12/21 04:12:36;;;;;;;572.08;235.43;;;-1.30;99.90;;;;;;5077264;28;20035;-60
2022/12/21 04:15:06;;;;;;;585.60;233.48;;;-1.40;99.90;;;;;;5077385;28;20083;-60
2022/12/21 04:17:32;;;;;;;566.60;240.07;;;-1.40;99.90;;;;;;5077488;28;20086;-60
2022/12/21 04:19:58;;;;;;;563.65;226.05;;;-1.40;99.90;;;;;;5077312;28;20504;-60
2022/12/21 04:28:08;;;;;;;564.05;243.95;;;-1.70;99.90;;;;;;5077290;28;20097;-60
2022/12/21 04:30:42;;;;;;;578.60;256.05;;;-1.80;99.90;;;;;;5077249;28;20046;-60
2022/12/21 04:33:11;;;;;;;593.88;259.75;;;-1.80;99.90;;;;;;5076756;28;20082;-60
2022/12/21 04:35:37;;;;;;;592.17;263.35;;;-1.90;99.90;;;;;;5077047;28;20017;-60
2022/12/21 04:38:03;;;;;;;589.05;257.73;;;-1.90;99.90;;;;;;5076945;28;20031;-60
2022/12/21 04:40:30;;;;;;;618.67;277.92;;;-1.90;99.90;;;;;;5076855;28;20029;-60
2022/12/21 04:42:56;;;;;;;597.63;262.50;;;-1.90;99.90;;;;;;5076945;28;20029;-60
2022/12/21 04:45:22;;;;;;;601.03;276.17;;;-1.90;99.90;;;;;;5076622;28;20482;-60
2022/12/21 04:47:51;;;;;;;614.47;283.52;;;-1.90;99.90;;;;;;5076823;28;20032;-60
2022/12/21 04:50:17;;;;;;;580.22;257.92;;;-1.90;99.90;;;;;;5076691;28;20020;-60
2022/12/21 04:52:42;;;;;;;592.40;255.85;;;-1.80;99.90;;;;;;5076503;28;20082;-60
2022/12/21 04:55:09;;;;;;;542.95;238.60;;;-1.70;99.90;;;;;;5076628;28;20078;-60
2022/12/21 04:57:35;;;;;;;569.25;240.32;;;-1.70;99.90;;;;;;5076406;28;20013;-60
2022/12/21 05:00:02;;;;;;;585.05;247.55;;;-1.50;99.90;;;;;;5076677;28;20025;-60
2022/12/21 05:02:28;;;;;;;588.83;253.95;;;-1.70;99.90;;;;;;5076359;28;20059;-60
2022/12/21 05:04:54;;;;;;;566.53;256.13;;;-1.60;99.90;;;;;;5076355;28;20029;-60
2022/12/21 05:07:20;;;;;;;572.53;244.57;;;-1.70;99.90;;;;;;5076377;28;20025;-60
2022/12/21 05:09:46;;;;;;;537.08;227.38;;;-1.60;99.90;;;;;;5076336;28;20028;-60
2022/12/21 05:12:12;;;;;;;535.63;223.15;;;-1.60;99.90;;;;;;5076148;28;20398;-60
2022/12/21 05:14:38;;;;;;;528.85;221.20;;;-1.80;99.90;;;;;;5076335;28;20031;-60
2022/12/21 05:17:04;;;;;;;549.03;228.07;;;-1.70;99.90;;;;;;5057925;28;20028;-60
2022/12/21 05:19:30;;;;;;;546.90;233.50;;;-1.80;99.90;;;;;;5076095;28;20386;-60
2022/12/21 05:21:55;;;;;;;548.15;235.93;;;-1.90;99.90;;;;;;5076212;28;20032;-60
2022/12/21 05:24:21;;;;;;;565.17;246.15;;;-1.90;99.90;;;;;;5076013;28;20047;-60
2022/12/21 05:26:47;;;;;;;557.50;237.90;;;-2.00;99.90;;;;;;5076074;28;20382;-60
2022/12/21 05:29:13;;;;;;;564.20;248.75;;;-2.10;99.90;;;;;;5075890;28;20029;-60
2022/12/21 05:31:39;;;;;;;571.42;260.00;;;-2.10;99.90;;;;;;5075794;28;20039;-60
2022/12/21 05:34:05;;;;;;;563.17;249.93;;;-2.20;99.90;;;;;;5075594;28;20432;-60
2022/12/21 05:36:31;;;;;;;552.50;245.48;;;-2.20;99.90;;;;;;5075871;28;20070;-60
2022/12/21 05:38:57;;;;;;;569.45;246.20;;;-2.20;99.90;;;;;;5075696;28;20497;-60
2022/12/21 05:41:23;;;;;;;557.25;247.48;;;-2.20;99.90;;;;;;5075641;28;20111;-60
2022/12/21 05:43:49;;;;;;;572.30;258.70;;;-2.20;99.90;;;;;;5075554;28;20025;-60
2022/12/21 05:46:15;;;;;;;581.17;263.90;;;-2.20;99.90;;;;;;5075489;28;20040;-60
2022/12/21 05:48:41;;;;;;;567.55;254.88;;;-2.10;99.90;;;;;;5075448;28;20120;-60
2022/12/21 05:51:09;;;;;;;577.40;255.10;;;-2.10;99.90;;;;;;5057419;28;20035;-60
2022/12/21 05:53:36;;;;;;;568.70;262.60;;;-2.10;99.90;;;;;;5075574;28;20024;-60
2022/12/21 05:56:03;;;;;;;581.28;259.45;;;-2.10;99.90;;;;;;5075444;28;20028;-60
2022/12/21 05:58:29;;;;;;;589.85;265.73;;;-2.00;99.90;;;;;;5075131;28;20028;-60
2022/12/21 06:00:55;;;;;;;558.53;236.57;;;-2.00;99.90;;;;;;5074753;28;20032;-60
2022/12/21 06:03:21;;;;;;;524.88;217.80;;;-1.90;99.90;;;;;;5075206;28;20024;-60
2022/12/21 06:05:47;;;;;;;528.22;218.13;;;-1.70;99.90;;;;;;5075230;28;20058;-60
2022/12/21 06:08:13;;;;;;;512.35;217.65;;;-1.80;99.90;;;;;;5074940;28;20409;-60
2022/12/21 06:10:39;;;;;;;505.85;210.55;;;-1.90;99.90;;;;;;5074985;28;20226;-60
2022/12/21 06:13:06;;;;;;;482.20;203.10;;;-1.90;99.90;;;;;;5074826;28;20054;-60
2022/12/21 06:15:32;;;;;;;505.63;212.88;;;-1.80;99.90;;;;;;5074989;28;20037;-60
2022/12/21 06:17:58;;;;;;;523.72;227.27;;;-1.70;99.90;;;;;;5056628;28;20417;-60
2022/12/21 06:20:24;;;;;;;509.92;217.07;;;-1.80;99.90;;;;;;5056829;28;20124;-60
2022/12/21 06:22:50;;;;;;;504.90;206.80;;;-1.90;99.90;;;;;;5074804;28;20451;-60
2022/12/21 06:25:16;;;;;;;463.75;189.55;;;-1.80;99.90;;;;;;5074620;28;20024;-60
2022/12/21 06:27:42;;;;;;;436.05;174.95;;;-1.60;99.90;;;;;;5071549;28;20032;-60
2022/12/21 06:30:09;;;;;;;410.48;165.90;;;-1.70;99.90;;;;;;5074116;28;20089;-60
2022/12/21 06:32:36;;;;;;;460.80;187.70;;;-1.60;99.90;;;;;;5074631;28;20426;-60
2022/12/21 06:35:02;;;;;;;441.48;189.10;;;-1.70;99.90;;;;;;5080265;28;20028;-60
2022/12/21 06:37:28;;;;;;;462.48;191.88;;;-1.80;99.90;;;;;;5081632;28;20032;-60
2022/12/21 06:40:05;;;;;;;450.15;185.63;;;-1.80;99.90;;;;;;5081522;28;20036;-60
2022/12/21 06:42:31;;;;;;;423.42;177.77;;;-1.80;99.90;;;;;;5082999;28;20461;-60
2022/12/21 06:44:57;;;;;;;484.65;207.15;;;-1.60;99.90;;;;;;5084070;28;20030;-60
2022/12/21 06:47:23;;;;;;;472.08;194.93;;;-1.50;99.90;;;;;;5081951;28;20058;-60
2022/12/21 06:49:49;;;;;;;426.10;178.93;;;-1.50;99.90;;;;;;5084076;28;20477;-60
2022/12/21 06:52:15;;;;;;;486.25;214.55;;;-1.40;99.90;;;;;;5083192;28;20027;-60
2022/12/21 06:54:40;;;;;;;494.20;212.30;;;-1.40;99.90;;;;;;5080580;28;20036;-60
2022/12/21 06:57:06;;;;;;;478.63;194.73;;;-1.30;99.90;;;;;;5081514;28;20024;-60
2022/12/21 06:59:36;;;;;;;462.70;187.30;;;-1.20;99.90;;;;;;5082201;28;20020;-60
2022/12/21 07:02:03;;;;;;;463.92;194.65;;;-1.40;99.90;;;;;;5075318;28;20079;-60
2022/12/21 07:04:28;;;;;;;459.75;191.82;;;-1.30;99.90;;;;;;5081397;28;20107;-60
2022/12/21 07:06:54;;;;;;;452.95;186.70;;;-1.20;99.90;;;;;;5090421;28;20064;-60
2022/12/21 07:09:20;;;;;;;476.20;202.10;;;-1.20;99.90;;;;;;5087920;28;20027;-60
2022/12/21 07:11:52;;;;;;;515.00;211.85;;;-1.20;99.90;;;;;;5073719;28;20500;-60
2022/12/21 07:14:18;;;;;;;553.67;228.80;;;-1.10;99.90;;;;;;5080689;28;20028;-60
2022/12/21 07:16:44;;;;;;;561.03;229.82;;;-1.00;99.90;;;;;;5085525;28;20025;-61
2022/12/21 07:19:10;;;;;;;514.67;223.98;;;-1.00;99.90;;;;;;5089196;28;20127;-61
2022/12/21 07:21:36;;;;;;;497.83;212.70;;;-0.80;99.90;;;;;;5096804;28;20068;-61
2022/12/21 07:24:02;;;;;;;547.38;226.48;;;-0.40;99.90;;;;;;5086822;28;20020;-61
2022/12/21 07:26:28;;;;;;;608.20;250.48;;;-0.10;99.90;;;;;;5098000;28;20073;-61
2022/12/21 07:28:55;;;;;;;576.55;242.35;;;0.20;99.90;;;;;;5085611;28;20028;-61
2022/12/21 07:31:26;;;;;;;580.38;244.43;;;0.70;99.90;;;;;;5057701;28;20391;-61
2022/12/21 07:34:03;;;;;;;445.60;184.35;;;1.30;99.90;;;;;;5079327;28;20029;-60
2022/12/21 07:36:31;;;;;;;444.15;182.75;;;2.00;99.90;;;;;;5087817;28;20032;-60
2022/12/21 07:38:57;;;;;;;423.85;173.43;;;2.50;99.90;;;;;;5090799;28;20500;-60
2022/12/21 07:41:23;;;;;;;438.67;183.43;;;3.00;99.90;;;;;;5093821;28;20020;-60
2022/12/21 07:43:49;;;;;;;448.45;195.73;;;3.70;99.90;;;;;;5098651;28;20032;-61
2022/12/21 07:46:38;;;;;;;464.92;207.73;;;4.60;99.90;;;;;;5049011;28;20040;-60
2022/12/21 07:49:07;;;;;;;514.22;236.52;;;5.50;93.60;;;;;;5060304;28;20040;-60
2022/12/21 07:51:33;;;;;;;539.92;255.18;;;5.70;91.00;;;;;;5074305;28;20033;-60
2022/12/21 07:53:59;;;;;;;558.80;274.27;;;5.80;91.80;;;;;;5077969;28;20024;-61
2022/12/21 07:56:25;;;;;;;569.30;280.92;;;6.40;87.90;;;;;;5077971;28;20032;-61
2022/12/21 07:58:51;;;;;;;499.70;243.60;;;6.50;86.20;;;;;;5088790;28;20028;-61
2022/12/21 08:01:18;;;;;;;531.95;263.42;;;6.30;84.30;;;;;;5090081;28;20016;-60
2022/12/21 08:03:45;;;;;;;544.85;266.10;;;6.20;84.70;;;;;;5094196;28;20040;-61
2022/12/21 08:06:12;;;;;;;548.33;275.50;;;6.10;85.30;;;;;;5079144;28;20100;-61
2022/12/21 08:08:38;;;;;;;543.65;281.23;;;6.00;85.10;;;;;;5096373;28;20032;-61
2022/12/21 08:11:09;;;;;;;557.45;284.45;;;6.30;84.30;;;;;;5057680;28;20026;-61
2022/12/21 08:13:35;;;;;;;556.95;291.77;;;6.60;82.80;;;;;;5068366;28;20021;-61
2022/12/21 08:16:05;;;;;;;575.92;303.00;;;6.90;82.50;;;;;;5077473;28;20157;-61
2022/12/21 08:18:32;;;;;;;579.60;310.88;;;7.00;81.40;;;;;;5077631;28;20048;-61
2022/12/21 08:20:58;;;;;;;587.22;312.20;;;7.60;78.10;;;;;;5077531;28;20048;-61
2022/12/21 08:23:25;;;;;;;594.90;313.85;;;7.20;77.00;;;;;;5077258;28;20500;-61
2022/12/21 08:25:51;;;;;;;563.22;304.08;;;8.20;76.50;;;;;;5077176;28;20048;-61
2022/12/21 08:28:27;;;;;;;551.75;296.60;;;8.80;75.70;;;;;;5075315;28;20466;-61
2022/12/21 08:31:02;;;;;;;551.92;301.95;;;9.50;69.70;;;;;;5076539;28;20025;-61
2022/12/21 08:33:28;;;;;;;565.03;308.33;;;10.00;67.30;;;;;;5076143;28;20039;-61
2022/12/21 08:35:54;;;;;;;522.83;277.60;;;10.00;64.00;;;;;;5076349;28;20335;-61
2022/12/21 08:38:20;;;;;;;518.15;276.10;;;9.50;67.20;;;;;;5076514;28;20021;-61
2022/12/21 08:40:46;;;;;;;527.45;300.75;;;9.50;69.80;;;;;;5076481;28;20464;-61
2022/12/21 08:43:11;;;;;;;505.00;268.58;;;8.80;69.20;;;;;;5077085;28;20033;-62
2022/12/21 08:45:39;;;;;;;510.10;265.42;;;9.00;72.60;;;;;;5077322;28;20637;-61
2022/12/21 08:48:05;;;;;;;417.33;219.25;;;9.90;69.10;;;;;;5077386;28;20036;-62
2022/12/21 08:50:32;;;;;;;359.63;180.02;;;10.70;66.40;;;;;;5076847;28;20354;-62
2022/12/21 08:52:58;;;;;;;292.55;147.23;;;11.30;63.30;;;;;;5077008;28;20032;-62
2022/12/21 08:55:24;;;;;;;279.10;137.73;;;11.50;65.00;;;;;;5076718;28;20027;-61
2022/12/21 08:57:50;;;;;;;249.90;128.45;;;11.20;63.20;;;;;;5076027;28;20107;-61
2022/12/21 09:00:16;;;;;;;300.85;157.95;;;11.90;61.20;;;;;;5076391;28;20024;-61
2022/12/21 09:02:42;;;;;;;347.33;180.88;;;10.50;63.40;;;;;;5076269;28;20029;-62
2022/12/21 09:05:08;;;;;;;363.92;194.60;;;9.50;68.00;;;;;;5075875;28;20029;-62
2022/12/21 09:07:35;;;;;;;416.52;228.77;;;9.80;68.00;;;;;;5076405;28;20078;-62
2022/12/21 09:10:01;;;;;;;409.63;216.50;;;9.50;69.00;;;;;;5076308;28;20028;-62
2022/12/21 09:12:27;;;;;;;397.50;208.35;;;9.60;69.20;;;;;;5077684;28;20032;-62
2022/12/21 09:14:53;;;;;;;378.58;202.13;;;9.50;69.30;;;;;;5077372;28;20020;-62
2022/12/21 09:17:19;;;;;;;382.35;196.88;;;9.60;70.20;;;;;;5089453;28;20071;-62
2022/12/21 09:19:45;;;;;;;351.27;189.40;;;10.00;68.50;;;;;;5085938;28;20465;-62
2022/12/21 09:22:12;;;;;;;349.17;179.23;;;10.40;68.90;;;;;;5096659;28;20020;-62
2022/12/21 09:24:38;;;;;;;312.60;160.18;;;11.00;67.90;;;;;;5096928;28;20028;-62
2022/12/21 09:27:04;;;;;;;306.02;160.70;;;12.00;64.50;;;;;;5078525;28;20490;-62
2022/12/21 09:29:29;;;;;;;299.92;156.77;;;12.00;63.20;;;;;;5089683;28;20074;-62
2022/12/21 09:31:55;;;;;;;246.27;133.07;;;11.70;63.80;;;;;;5087992;28;20040;-62
2022/12/21 09:34:21;;;;;;;275.15;149.10;;;11.30;64.90;;;;;;5075884;28;20044;-63
2022/12/21 09:36:48;;;;;;;282.83;151.07;;;11.00;65.50;;;;;;5075679;28;20028;-62
2022/12/21 09:39:14;;;;;;;266.90;144.20;;;11.60;66.60;;;;;;5075676;28;20028;-63
2022/12/21 09:42:00;;;;;;;254.85;136.35;;;12.40;64.50;;;;;;5076050;28;20024;-62
2022/12/21 09:44:38;;;;;;;296.77;155.18;;;13.00;61.60;;;;;;5076139;28;20079;-63
2022/12/21 09:47:10;;;;;;;273.48;144.38;;;12.70;61.70;;;;;;5075995;28;20032;-63
2022/12/21 09:49:55;;;;;;;289.70;151.32;;;13.10;62.60;;;;;;5075888;28;20036;-63
2022/12/21 09:52:31;;;;;;;236.52;121.15;;;14.10;59.00;;;;;;5056019;28;20032;-63
2022/12/21 09:55:06;;;;;;;217.75;113.22;;;14.90;56.70;;;;;;5055822;28;20032;-63
2022/12/21 09:57:35;;;;;;;194.77;111.65;;;14.90;56.30;;;;;;5055826;28;20080;-64
2022/12/21 10:00:12;;;;;;;212.05;112.88;;;14.90;56.70;;;;;;5070292;28;20082;-64
2022/12/21 10:03:00;;;;;;;215.23;112.28;;;15.00;57.00;;;;;;5058717;28;20040;-64
2022/12/21 10:05:37;;;;;;;212.82;113.57;;;14.50;57.80;;;;;;5079923;28;20750;-64
2022/12/21 10:08:22;;;;;;;235.93;119.75;;;15.40;55.10;;;;;;5077630;28;20032;-64
2022/12/21 10:11:09;;;;;;;236.40;126.65;;;15.70;54.20;;;;;;5072231;28;20521;-63
2022/12/21 10:13:51;;;;;;;215.70;110.15;;;15.10;55.00;;;;;;5075926;28;20060;-64
2022/12/21 10:16:40;;;;;;;218.05;113.93;;;15.30;54.80;;;;;;5076711;28;20028;-65
2022/12/21 10:19:30;;;;;;;244.35;125.47;;;14.80;54.90;;;;;;5074510;28;20048;-65
2022/12/21 10:21:59;;;;;;;225.53;122.90;;;15.10;55.60;;;;;;5084632;28;20059;-64
2022/12/21 10:24:35;;;;;;;216.63;117.97;;;14.80;57.50;;;;;;5070551;28;20657;-65
2022/12/21 10:27:17;;;;;;;225.82;116.50;;;14.90;56.10;;;;;;5080612;28;20467;-64
2022/12/21 10:29:48;;;;;;;213.02;113.15;;;14.40;57.80;;;;;;5084022;28;20032;-65
2022/12/21 10:32:15;;;;;;;216.85;119.93;;;14.70;57.50;;;;;;5092909;28;20036;-64
2022/12/21 10:34:49;;;;;;;186.43;104.35;;;15.00;55.50;;;;;;5087110;28;20028;-64
2022/12/21 10:37:18;;;;;;;184.68;100.10;;;15.10;55.60;;;;;;5073753;28;20108;-64
2022/12/21 10:39:45;;;;;;;175.02;100.05;;;15.70;53.80;;;;;;5074131;28;20027;-64
2022/12/21 10:42:22;;;;;;;176.30;98.18;;;15.60;54.70;;;;;;5073874;28;20036;-64
2022/12/21 10:44:50;;;;;;;169.43;87.47;;;15.40;53.90;;;;;;5082982;28;20031;-65
2022/12/21 10:47:22;;;;;;;203.57;113.07;;;16.00;52.60;;;;;;5094431;28;20028;-65
2022/12/21 10:50:19;;;;;;;242.93;121.97;;;16.30;53.20;;;;;;5094160;28;20024;-63
2022/12/21 10:52:48;;;;;;;187.80;103.13;;;16.20;53.90;;;;;;5055617;28;20111;-65
2022/12/21 10:55:20;;;;;;;183.45;99.93;;;16.60;53.50;;;;;;5087802;28;20024;-64
2022/12/21 10:57:48;;;;;;;179.88;101.05;;;16.20;53.40;;;;;;5094103;28;20028;-64
2022/12/21 11:00:25;;;;;;;176.30;99.00;;;16.40;53.80;;;;;;5089534;28;20028;-64
2022/12/21 11:02:53;;;;;;;182.57;98.57;;;16.40;53.00;;;;;;5069005;28;20036;-63
2022/12/21 11:05:37;;;;;;;192.68;102.00;;;16.20;53.60;;;;;;5095220;28;20036;-64
2022/12/21 11:08:24;;;;;;;180.52;97.22;;;15.70;54.40;;;;;;5089241;28;20556;-64
2022/12/21 11:11:00;;;;;;;198.48;104.35;;;15.60;55.00;;;;;;5072570;28;20481;-65
2022/12/21 11:13:29;;;;;;;183.25;96.40;;;15.50;56.00;;;;;;5074016;28;20033;-64
2022/12/21 11:16:05;;;;;;;168.85;92.32;;;15.20;57.00;;;;;;5074085;28;20116;-63
2022/12/21 11:18:43;;;;;;;166.85;92.15;;;15.10;56.70;;;;;;5073498;28;20401;-64
2022/12/21 11:21:30;;;;;;;168.82;92.53;;;14.70;57.90;;;;;;5073857;28;20367;-63
2022/12/21 11:24:16;;;;;;;164.45;94.65;;;14.90;57.80;;;;;;5074094;28;20028;-65
2022/12/21 11:26:52;;;;;;;178.52;92.53;;;14.30;58.20;;;;;;5072868;28;20036;-65
2022/12/21 11:29:32;;;;;;;157.30;82.90;;;14.50;58.30;;;;;;5073528;28;20115;-64
2022/12/21 11:32:04;;;;;;;162.18;85.82;;;14.10;58.20;;;;;;5073479;28;20043;-64
2022/12/21 11:34:51;;;;;;;180.48;81.63;;;14.10;59.40;;;;;;5073628;28;20035;-64
2022/12/21 11:37:25;;;;;;;161.30;82.43;;;14.40;59.00;;;;;;5081689;28;20688;-64
2022/12/21 11:39:51;;;;;;;153.98;78.82;;;14.60;59.20;;;;;;5090168;28;20040;-63
2022/12/21 11:42:19;;;;;;;131.93;71.78;;;14.90;58.10;;;;;;5091566;28;20501;-63
2022/12/21 11:44:46;;;;;;;124.72;67.72;;;14.90;58.50;;;;;;5102523;28;20044;-64
2022/12/21 11:48:17;;;;;;;137.60;71.55;;;15.40;57.00;;;;;;5093516;28;20028;-63
2022/12/21 11:50:48;;;;;;;131.50;70.60;;;16.00;56.00;;;;;;4981125;28;20042;-64
2022/12/21 11:53:50;;;;;;;153.10;77.55;;;16.10;56.30;;;;;;5088862;28;20503;-63
2022/12/21 11:56:53;;;;;;;139.30;75.75;;;16.20;55.70;;;;;;5070605;28;20055;-63
2022/12/21 11:59:49;;;;;;;121.03;68.88;;;16.50;54.20;;;;;;5083538;28;20032;-63
2022/12/21 12:02:27;;;;;;;131.20;73.40;;;16.30;53.60;;;;;;5092813;28;20497;-63
2022/12/21 12:05:05;;;;;;;128.48;70.50;;;16.80;54.50;;;;;;5086919;28;20024;-64
2022/12/21 12:07:56;;;;;;;143.40;70.80;;;17.00;54.00;;;;;;5071809;28;20082;-64
2022/12/21 12:10:29;;;;;;;129.93;69.10;;;17.10;52.90;;;;;;5074047;28;20412;-64
2022/12/21 12:13:23;;;;;;;137.85;70.90;;;17.10;52.50;;;;;;5076175;28;20024;-64
2022/12/21 12:15:49;;;;;;;129.02;69.93;;;17.40;52.20;;;;;;5087636;28;20025;-63
2022/12/21 12:18:45;;;;;;;152.15;78.53;;;17.50;50.60;;;;;;5077267;28;20040;-63
2022/12/21 12:21:24;;;;;;;136.40;72.68;;;16.70;52.00;;;;;;5070876;28;20021;-64
2022/12/21 12:24:29;;;;;;;155.65;81.20;;;15.60;54.40;;;;;;5078721;28;20039;-63
2022/12/21 12:27:24;;;;;;;148.48;77.28;;;16.00;55.30;;;;;;5097585;28;20575;-64
2022/12/21 12:30:10;;;;;;;121.85;64.68;;;16.40;54.10;;;;;;5097818;28;20035;-64
2022/12/21 12:32:51;;;;;;;142.80;68.05;;;16.70;52.70;;;;;;5097356;28;20020;-63
2022/12/21 12:35:30;;;;;;;122.13;63.28;;;16.70;52.80;;;;;;5084438;28;20552;-64
2022/12/21 12:38:24;;;;;;;132.77;70.82;;;16.70;52.30;;;;;;5079466;28;20048;-64
2022/12/21 12:41:27;;;;;;;113.32;64.65;;;16.90;53.60;;;;;;5056426;28;20538;-65
2022/12/21 12:44:11;;;;;;;128.10;63.97;;;17.10;53.00;;;;;;5056257;28;20127;-65
2022/12/21 12:47:02;;;;;;;111.90;60.83;;;18.00;49.70;;;;;;5095582;28;20035;-64